sensor_id;sensor_type;location;lat;lon;timestamp;P1;durP1;ratioP1;P2;durP2;ratioP2
3309;SDS011;1667;53.238;10.394;2023-01-26T00:03:24;28.37;;;12.90;;
3309;SDS011;1667;53.238;10.394;2023-01-26T00:08:23;35.00;;;15.07;;
3309;SDS011;1667;53.238;10.394;2023-01-26T00:13:22;40.07;;;16.43;;
3309;SDS011;1667;53.238;10.394;2023-01-26T00:18:20;45.10;;;16.40;;
3309;SDS011;1667;53.238;10.394;2023-01-26T00:23:20;39.33;;;15.90;;
3309;SDS011;1667;53.238;10.394;2023-01-26T00:28:19;26.57;;;12.90;;
3309;SDS011;1667;53.238;10.394;2023-01-26T00:33:18;27.60;;;13.13;;
3309;SDS011;1667;53.238;10.394;2023-01-26T00:38:16;42.10;;;18.23;;
3309;SDS011;1667;53.238;10.394;2023-01-26T00:43:17;32.73;;;14.03;;
3309;SDS011;1667;53.238;10.394;2023-01-26T00:48:16;29.37;;;12.77;;
3309;SDS011;1667;53.238;10.394;2023-01-26T00:53:14;31.83;;;13.87;;
3309;SDS011;1667;53.238;10.394;2023-01-26T00:58:14;46.40;;;18.23;;
3309;SDS011;1667;53.238;10.394;2023-01-26T01:03:14;34.30;;;12.90;;
3309;SDS011;1667;53.238;10.394;2023-01-26T01:08:15;41.00;;;16.60;;
3309;SDS011;1667;53.238;10.394;2023-01-26T01:13:14;32.57;;;13.73;;
3309;SDS011;1667;53.238;10.394;2023-01-26T01:18:14;43.07;;;18.57;;
3309;SDS011;1667;53.238;10.394;2023-01-26T01:23:12;39.87;;;15.23;;
3309;SDS011;1667;53.238;10.394;2023-01-26T01:28:11;34.13;;;14.37;;
3309;SDS011;1667;53.238;10.394;2023-01-26T01:33:09;27.33;;;13.60;;
3309;SDS011;1667;53.238;10.394;2023-01-26T01:38:09;39.23;;;16.90;;
3309;SDS011;1667;53.238;10.394;2023-01-26T01:49:56;32.00;;;13.90;;
3309;SDS011;1667;53.238;10.394;2023-01-26T01:54:57;35.63;;;14.93;;
3309;SDS011;1667;53.238;10.394;2023-01-26T02:00:03;31.60;;;13.37;;
3309;SDS011;1667;53.238;10.394;2023-01-26T02:05:12;32.83;;;12.70;;
3309;SDS011;1667;53.238;10.394;2023-01-26T02:10:20;33.00;;;14.10;;
3309;SDS011;1667;53.238;10.394;2023-01-26T02:15:19;33.73;;;14.17;;
3309;SDS011;1667;53.238;10.394;2023-01-26T02:20:19;35.30;;;15.07;;
3309;SDS011;1667;53.238;10.394;2023-01-26T02:25:25;42.87;;;15.10;;
3309;SDS011;1667;53.238;10.394;2023-01-26T02:30:31;48.57;;;19.83;;
3309;SDS011;1667;53.238;10.394;2023-01-26T02:35:30;36.37;;;15.43;;
3309;SDS011;1667;53.238;10.394;2023-01-26T02:40:31;33.03;;;14.57;;
3309;SDS011;1667;53.238;10.394;2023-01-26T02:45:41;40.07;;;17.13;;
3309;SDS011;1667;53.238;10.394;2023-01-26T02:50:40;30.20;;;12.17;;
3309;SDS011;1667;53.238;10.394;2023-01-26T02:55:39;38.00;;;15.33;;
3309;SDS011;1667;53.238;10.394;2023-01-26T03:00:37;41.30;;;14.40;;
3309;SDS011;1667;53.238;10.394;2023-01-26T03:05:41;52.30;;;20.40;;
3309;SDS011;1667;53.238;10.394;2023-01-26T03:10:39;36.00;;;15.60;;
3309;SDS011;1667;53.238;10.394;2023-01-26T03:15:38;41.63;;;16.20;;
3309;SDS011;1667;53.238;10.394;2023-01-26T03:20:51;39.50;;;16.77;;
3309;SDS011;1667;53.238;10.394;2023-01-26T03:26:07;34.27;;;16.17;;
3309;SDS011;1667;53.238;10.394;2023-01-26T03:31:25;34.53;;;13.50;;
3309;SDS011;1667;53.238;10.394;2023-01-26T03:36:25;32.00;;;12.43;;
3309;SDS011;1667;53.238;10.394;2023-01-26T03:41:24;43.17;;;18.63;;
3309;SDS011;1667;53.238;10.394;2023-01-26T03:46:41;37.00;;;14.90;;
3309;SDS011;1667;53.238;10.394;2023-01-26T03:51:58;38.40;;;16.20;;
3309;SDS011;1667;53.238;10.394;2023-01-26T03:57:16;37.10;;;14.60;;
3309;SDS011;1667;53.238;10.394;2023-01-26T04:02:14;36.53;;;14.40;;
3309;SDS011;1667;53.238;10.394;2023-01-26T04:07:33;33.87;;;13.13;;
3309;SDS011;1667;53.238;10.394;2023-01-26T04:12:49;41.40;;;17.17;;
3309;SDS011;1667;53.238;10.394;2023-01-26T04:18:07;39.30;;;15.80;;
3309;SDS011;1667;53.238;10.394;2023-01-26T04:23:26;34.83;;;14.33;;
3309;SDS011;1667;53.238;10.394;2023-01-26T04:28:25;34.00;;;15.60;;
3309;SDS011;1667;53.238;10.394;2023-01-26T04:33:24;45.37;;;17.53;;
3309;SDS011;1667;53.238;10.394;2023-01-26T04:38:23;31.77;;;13.53;;
3309;SDS011;1667;53.238;10.394;2023-01-26T04:43:24;36.13;;;14.60;;
3309;SDS011;1667;53.238;10.394;2023-01-26T04:48:22;35.97;;;14.47;;
3309;SDS011;1667;53.238;10.394;2023-01-26T04:53:22;27.87;;;12.33;;
3309;SDS011;1667;53.238;10.394;2023-01-26T04:58:21;31.03;;;12.57;;
3309;SDS011;1667;53.238;10.394;2023-01-26T05:03:21;25.07;;;12.00;;
3309;SDS011;1667;53.238;10.394;2023-01-26T05:08:21;37.13;;;15.00;;
3309;SDS011;1667;53.238;10.394;2023-01-26T05:13:20;34.90;;;13.20;;
3309;SDS011;1667;53.238;10.394;2023-01-26T05:18:42;32.07;;;13.57;;
3309;SDS011;1667;53.238;10.394;2023-01-26T05:23:54;40.47;;;16.47;;
3309;SDS011;1667;53.238;10.394;2023-01-26T05:29:09;41.40;;;17.20;;
3309;SDS011;1667;53.238;10.394;2023-01-26T05:34:10;33.30;;;15.20;;
3309;SDS011;1667;53.238;10.394;2023-01-26T05:39:09;49.13;;;19.67;;
3309;SDS011;1667;53.238;10.394;2023-01-26T05:44:08;30.00;;;14.00;;
3309;SDS011;1667;53.238;10.394;2023-01-26T05:49:12;36.10;;;14.30;;
3309;SDS011;1667;53.238;10.394;2023-01-26T05:54:11;40.53;;;17.23;;
3309;SDS011;1667;53.238;10.394;2023-01-26T05:59:09;29.93;;;12.90;;
3309;SDS011;1667;53.238;10.394;2023-01-26T06:04:10;35.07;;;15.03;;
3309;SDS011;1667;53.238;10.394;2023-01-26T06:09:21;32.33;;;12.50;;
3309;SDS011;1667;53.238;10.394;2023-01-26T06:14:44;32.37;;;14.10;;
3309;SDS011;1667;53.238;10.394;2023-01-26T06:19:44;34.03;;;15.70;;
3309;SDS011;1667;53.238;10.394;2023-01-26T06:24:43;33.40;;;14.27;;
3309;SDS011;1667;53.238;10.394;2023-01-26T06:29:42;28.90;;;13.47;;
3309;SDS011;1667;53.238;10.394;2023-01-26T06:34:42;32.13;;;13.10;;
3309;SDS011;1667;53.238;10.394;2023-01-26T06:39:42;28.93;;;12.47;;
3309;SDS011;1667;53.238;10.394;2023-01-26T06:44:40;35.60;;;15.60;;
3309;SDS011;1667;53.238;10.394;2023-01-26T06:49:39;35.43;;;14.57;;
3309;SDS011;1667;53.238;10.394;2023-01-26T06:54:42;36.00;;;15.10;;
3309;SDS011;1667;53.238;10.394;2023-01-26T06:59:41;34.67;;;14.23;;
3309;SDS011;1667;53.238;10.394;2023-01-26T07:05:03;28.53;;;13.50;;
3309;SDS011;1667;53.238;10.394;2023-01-26T07:10:03;33.27;;;14.33;;
3309;SDS011;1667;53.238;10.394;2023-01-26T07:15:03;30.50;;;13.67;;
3309;SDS011;1667;53.238;10.394;2023-01-26T07:20:02;32.30;;;13.97;;
3309;SDS011;1667;53.238;10.394;2023-01-26T07:25:04;30.37;;;13.30;;
3309;SDS011;1667;53.238;10.394;2023-01-26T07:30:03;28.70;;;12.40;;
3309;SDS011;1667;53.238;10.394;2023-01-26T07:35:03;38.30;;;14.80;;
3309;SDS011;1667;53.238;10.394;2023-01-26T07:40:03;25.10;;;11.17;;
3309;SDS011;1667;53.238;10.394;2023-01-26T07:45:04;29.20;;;12.50;;
3309;SDS011;1667;53.238;10.394;2023-01-26T07:50:03;28.60;;;12.60;;
3309;SDS011;1667;53.238;10.394;2023-01-26T07:55:05;37.43;;;14.40;;
3309;SDS011;1667;53.238;10.394;2023-01-26T08:00:04;27.67;;;12.17;;
3309;SDS011;1667;53.238;10.394;2023-01-26T08:05:07;26.73;;;12.47;;
3309;SDS011;1667;53.238;10.394;2023-01-26T08:10:08;38.67;;;16.07;;
3309;SDS011;1667;53.238;10.394;2023-01-26T08:15:08;33.30;;;14.60;;
3309;SDS011;1667;53.238;10.394;2023-01-26T08:20:08;29.27;;;12.57;;
3309;SDS011;1667;53.238;10.394;2023-01-26T08:25:10;24.43;;;11.30;;
3309;SDS011;1667;53.238;10.394;2023-01-26T08:30:08;25.17;;;12.53;;
3309;SDS011;1667;53.238;10.394;2023-01-26T08:35:09;27.53;;;11.77;;
3309;SDS011;1667;53.238;10.394;2023-01-26T08:40:07;27.50;;;11.97;;
3309;SDS011;1667;53.238;10.394;2023-01-26T08:45:09;41.50;;;16.73;;
3309;SDS011;1667;53.238;10.394;2023-01-26T08:50:08;35.03;;;14.40;;
3309;SDS011;1667;53.238;10.394;2023-01-26T08:55:09;36.30;;;14.00;;
3309;SDS011;1667;53.238;10.394;2023-01-26T09:00:08;26.80;;;12.63;;
3309;SDS011;1667;53.238;10.394;2023-01-26T09:05:09;42.17;;;16.83;;
3309;SDS011;1667;53.238;10.394;2023-01-26T09:10:07;32.93;;;15.00;;
3309;SDS011;1667;53.238;10.394;2023-01-26T09:15:09;29.67;;;11.80;;
3309;SDS011;1667;53.238;10.394;2023-01-26T09:20:08;26.93;;;11.13;;
3309;SDS011;1667;53.238;10.394;2023-01-26T09:25:10;26.13;;;13.20;;
3309;SDS011;1667;53.238;10.394;2023-01-26T09:30:09;28.83;;;12.23;;
3309;SDS011;1667;53.238;10.394;2023-01-26T09:35:08;28.73;;;13.77;;
3309;SDS011;1667;53.238;10.394;2023-01-26T09:40:13;32.33;;;12.40;;
3309;SDS011;1667;53.238;10.394;2023-01-26T09:45:17;23.17;;;10.20;;
3309;SDS011;1667;53.238;10.394;2023-01-26T09:50:22;18.60;;;9.43;;
3309;SDS011;1667;53.238;10.394;2023-01-26T09:55:25;21.50;;;9.93;;
3309;SDS011;1667;53.238;10.394;2023-01-26T10:00:27;31.73;;;13.00;;
3309;SDS011;1667;53.238;10.394;2023-01-26T10:05:29;21.00;;;9.23;;
3309;SDS011;1667;53.238;10.394;2023-01-26T10:10:36;23.43;;;11.33;;
3309;SDS011;1667;53.238;10.394;2023-01-26T10:15:39;33.47;;;13.43;;
3309;SDS011;1667;53.238;10.394;2023-01-26T10:20:41;20.73;;;9.53;;
3309;SDS011;1667;53.238;10.394;2023-01-26T10:25:45;33.10;;;11.73;;
3309;SDS011;1667;53.238;10.394;2023-01-26T10:30:44;19.83;;;9.67;;
3309;SDS011;1667;53.238;10.394;2023-01-26T10:35:45;29.70;;;9.30;;
3309;SDS011;1667;53.238;10.394;2023-01-26T10:40:45;28.43;;;12.37;;
3309;SDS011;1667;53.238;10.394;2023-01-26T10:45:44;24.57;;;10.07;;
3309;SDS011;1667;53.238;10.394;2023-01-26T10:50:43;20.87;;;9.63;;
3309;SDS011;1667;53.238;10.394;2023-01-26T10:55:42;17.77;;;8.90;;
3309;SDS011;1667;53.238;10.394;2023-01-26T11:00:42;17.10;;;9.20;;
3309;SDS011;1667;53.238;10.394;2023-01-26T11:05:41;23.50;;;9.87;;
3309;SDS011;1667;53.238;10.394;2023-01-26T11:10:50;22.90;;;9.30;;
3309;SDS011;1667;53.238;10.394;2023-01-26T11:16:00;27.83;;;11.80;;
3309;SDS011;1667;53.238;10.394;2023-01-26T11:21:02;26.70;;;11.40;;
3309;SDS011;1667;53.238;10.394;2023-01-26T11:26:14;19.00;;;8.20;;
3309;SDS011;1667;53.238;10.394;2023-01-26T11:31:35;23.50;;;10.30;;
3309;SDS011;1667;53.238;10.394;2023-01-26T11:36:41;21.00;;;8.50;;
3309;SDS011;1667;53.238;10.394;2023-01-26T11:41:48;15.40;;;7.60;;
3309;SDS011;1667;53.238;10.394;2023-01-26T11:47:06;17.83;;;7.53;;
3309;SDS011;1667;53.238;10.394;2023-01-26T11:52:29;16.60;;;7.23;;
3309;SDS011;1667;53.238;10.394;2023-01-26T11:57:35;18.87;;;8.70;;
3309;SDS011;1667;53.238;10.394;2023-01-26T12:02:39;16.93;;;7.70;;
3309;SDS011;1667;53.238;10.394;2023-01-26T12:07:42;22.93;;;9.53;;
3309;SDS011;1667;53.238;10.394;2023-01-26T12:12:51;18.83;;;9.10;;
3309;SDS011;1667;53.238;10.394;2023-01-26T12:17:57;21.23;;;9.17;;
3309;SDS011;1667;53.238;10.394;2023-01-26T12:23:00;17.33;;;8.10;;
3309;SDS011;1667;53.238;10.394;2023-01-26T12:28:04;18.27;;;7.23;;
3309;SDS011;1667;53.238;10.394;2023-01-26T12:33:10;13.17;;;5.97;;
3309;SDS011;1667;53.238;10.394;2023-01-26T12:38:10;12.77;;;5.80;;
3309;SDS011;1667;53.238;10.394;2023-01-26T12:43:17;13.83;;;7.80;;
3309;SDS011;1667;53.238;10.394;2023-01-26T12:48:29;15.60;;;7.70;;
3309;SDS011;1667;53.238;10.394;2023-01-26T12:53:37;15.70;;;7.50;;
3309;SDS011;1667;53.238;10.394;2023-01-26T12:58:46;13.07;;;6.97;;
3309;SDS011;1667;53.238;10.394;2023-01-26T13:03:51;9.13;;;5.13;;
3309;SDS011;1667;53.238;10.394;2023-01-26T13:08:59;15.07;;;6.80;;
3309;SDS011;1667;53.238;10.394;2023-01-26T13:14:00;15.90;;;7.90;;
3309;SDS011;1667;53.238;10.394;2023-01-26T13:19:00;9.37;;;5.90;;
3309;SDS011;1667;53.238;10.394;2023-01-26T13:23:59;14.60;;;7.33;;
3309;SDS011;1667;53.238;10.394;2023-01-26T13:34:27;23.27;;;9.67;;
3309;SDS011;1667;53.238;10.394;2023-01-26T13:39:28;16.80;;;8.60;;
3309;SDS011;1667;53.238;10.394;2023-01-26T13:44:32;25.10;;;10.77;;
3309;SDS011;1667;53.238;10.394;2023-01-26T13:49:38;20.63;;;9.67;;
3309;SDS011;1667;53.238;10.394;2023-01-26T13:54:38;16.13;;;7.57;;
3309;SDS011;1667;53.238;10.394;2023-01-26T13:59:46;21.13;;;9.90;;
3309;SDS011;1667;53.238;10.394;2023-01-26T14:04:50;15.93;;;7.97;;
3309;SDS011;1667;53.238;10.394;2023-01-26T14:09:52;20.83;;;7.70;;
3309;SDS011;1667;53.238;10.394;2023-01-26T14:14:56;21.77;;;11.60;;
3309;SDS011;1667;53.238;10.394;2023-01-26T14:19:59;35.60;;;12.00;;
3309;SDS011;1667;53.238;10.394;2023-01-26T14:24:59;24.67;;;9.57;;
3309;SDS011;1667;53.238;10.394;2023-01-26T14:29:57;17.93;;;8.00;;
3309;SDS011;1667;53.238;10.394;2023-01-26T14:34:57;26.03;;;11.37;;
3309;SDS011;1667;53.238;10.394;2023-01-26T14:40:14;43.00;;;14.57;;
3309;SDS011;1667;53.238;10.394;2023-01-26T14:45:16;35.63;;;11.87;;
3309;SDS011;1667;53.238;10.394;2023-01-26T14:50:24;28.73;;;12.30;;
3309;SDS011;1667;53.238;10.394;2023-01-26T14:55:25;24.03;;;8.83;;
3309;SDS011;1667;53.238;10.394;2023-01-26T15:00:27;31.23;;;11.70;;
3309;SDS011;1667;53.238;10.394;2023-01-26T15:05:32;32.63;;;12.87;;
3309;SDS011;1667;53.238;10.394;2023-01-26T15:10:33;19.87;;;9.97;;
3309;SDS011;1667;53.238;10.394;2023-01-26T15:15:34;40.10;;;13.33;;
3309;SDS011;1667;53.238;10.394;2023-01-26T15:20:39;32.77;;;12.50;;
3309;SDS011;1667;53.238;10.394;2023-01-26T15:25:39;44.17;;;12.87;;
3309;SDS011;1667;53.238;10.394;2023-01-26T15:30:37;25.53;;;11.07;;
3309;SDS011;1667;53.238;10.394;2023-01-26T15:35:36;32.27;;;12.40;;
3309;SDS011;1667;53.238;10.394;2023-01-26T15:40:36;33.33;;;11.70;;
3309;SDS011;1667;53.238;10.394;2023-01-26T15:45:35;31.00;;;13.60;;
3309;SDS011;1667;53.238;10.394;2023-01-26T15:50:35;26.07;;;11.00;;
3309;SDS011;1667;53.238;10.394;2023-01-26T15:55:35;24.43;;;10.30;;
3309;SDS011;1667;53.238;10.394;2023-01-26T16:00:33;17.57;;;9.50;;
3309;SDS011;1667;53.238;10.394;2023-01-26T16:05:32;24.47;;;10.27;;
3309;SDS011;1667;53.238;10.394;2023-01-26T16:10:31;15.23;;;7.87;;
3309;SDS011;1667;53.238;10.394;2023-01-26T16:15:34;20.37;;;9.30;;
3309;SDS011;1667;53.238;10.394;2023-01-26T16:20:37;14.83;;;7.73;;
3309;SDS011;1667;53.238;10.394;2023-01-26T16:25:37;21.23;;;8.97;;
3309;SDS011;1667;53.238;10.394;2023-01-26T16:30:37;15.90;;;8.30;;
3309;SDS011;1667;53.238;10.394;2023-01-26T16:35:35;14.07;;;7.57;;
3309;SDS011;1667;53.238;10.394;2023-01-26T16:40:34;14.37;;;7.60;;
3309;SDS011;1667;53.238;10.394;2023-01-26T16:45:32;18.93;;;9.10;;
3309;SDS011;1667;53.238;10.394;2023-01-26T16:50:32;17.03;;;9.20;;
3309;SDS011;1667;53.238;10.394;2023-01-26T16:55:31;16.50;;;8.47;;
3309;SDS011;1667;53.238;10.394;2023-01-26T17:00:29;15.57;;;8.60;;
3309;SDS011;1667;53.238;10.394;2023-01-26T17:05:27;15.03;;;8.40;;
3309;SDS011;1667;53.238;10.394;2023-01-26T17:10:28;17.73;;;8.17;;
3309;SDS011;1667;53.238;10.394;2023-01-26T17:15:26;19.97;;;10.43;;
3309;SDS011;1667;53.238;10.394;2023-01-26T17:20:25;21.80;;;9.80;;
3309;SDS011;1667;53.238;10.394;2023-01-26T17:25:23;19.83;;;9.03;;
3309;SDS011;1667;53.238;10.394;2023-01-26T17:30:23;29.93;;;15.20;;
3309;SDS011;1667;53.238;10.394;2023-01-26T17:35:22;11.37;;;6.87;;
3309;SDS011;1667;53.238;10.394;2023-01-26T17:40:20;18.57;;;10.03;;
3309;SDS011;1667;53.238;10.394;2023-01-26T17:45:19;21.17;;;10.03;;
3309;SDS011;1667;53.238;10.394;2023-01-26T17:50:20;21.77;;;11.30;;
3309;SDS011;1667;53.238;10.394;2023-01-26T17:55:18;20.17;;;8.63;;
3309;SDS011;1667;53.238;10.394;2023-01-26T18:00:17;29.13;;;11.70;;
3309;SDS011;1667;53.238;10.394;2023-01-26T18:05:18;23.77;;;11.00;;
3309;SDS011;1667;53.238;10.394;2023-01-26T18:10:18;24.77;;;10.27;;
3309;SDS011;1667;53.238;10.394;2023-01-26T18:15:17;19.57;;;10.97;;
3309;SDS011;1667;53.238;10.394;2023-01-26T18:20:15;27.47;;;12.30;;
3309;SDS011;1667;53.238;10.394;2023-01-26T18:32:04;14.77;;;7.90;;
3309;SDS011;1667;53.238;10.394;2023-01-26T18:37:03;22.50;;;9.53;;
3309;SDS011;1667;53.238;10.394;2023-01-26T18:42:02;27.90;;;11.00;;
3309;SDS011;1667;53.238;10.394;2023-01-26T18:47:00;20.23;;;9.90;;
3309;SDS011;1667;53.238;10.394;2023-01-26T18:52:01;23.17;;;10.57;;
3309;SDS011;1667;53.238;10.394;2023-01-26T18:57:00;26.93;;;9.67;;
3309;SDS011;1667;53.238;10.394;2023-01-26T19:02:00;31.60;;;14.63;;
3309;SDS011;1667;53.238;10.394;2023-01-26T19:07:00;30.60;;;13.10;;
3309;SDS011;1667;53.238;10.394;2023-01-26T19:11:59;29.10;;;13.73;;
3309;SDS011;1667;53.238;10.394;2023-01-26T19:16:58;26.90;;;12.93;;
3309;SDS011;1667;53.238;10.394;2023-01-26T19:21:57;30.67;;;14.60;;
3309;SDS011;1667;53.238;10.394;2023-01-26T19:26:57;30.03;;;12.20;;
3309;SDS011;1667;53.238;10.394;2023-01-26T19:31:56;26.90;;;13.50;;
3309;SDS011;1667;53.238;10.394;2023-01-26T19:36:54;26.07;;;12.73;;
3309;SDS011;1667;53.238;10.394;2023-01-26T19:41:53;31.60;;;13.70;;
3309;SDS011;1667;53.238;10.394;2023-01-26T19:46:52;29.10;;;13.70;;
3309;SDS011;1667;53.238;10.394;2023-01-26T19:51:51;35.40;;;13.53;;
3309;SDS011;1667;53.238;10.394;2023-01-26T19:56:50;28.80;;;13.13;;
3309;SDS011;1667;53.238;10.394;2023-01-26T20:01:49;32.40;;;12.90;;
3309;SDS011;1667;53.238;10.394;2023-01-26T20:06:48;34.10;;;17.30;;
3309;SDS011;1667;53.238;10.394;2023-01-26T20:11:47;33.10;;;13.90;;
3309;SDS011;1667;53.238;10.394;2023-01-26T20:16:46;28.87;;;12.60;;
3309;SDS011;1667;53.238;10.394;2023-01-26T20:21:44;36.70;;;13.50;;
3309;SDS011;1667;53.238;10.394;2023-01-26T20:26:44;25.27;;;11.20;;
3309;SDS011;1667;53.238;10.394;2023-01-26T20:31:44;29.10;;;13.20;;
3309;SDS011;1667;53.238;10.394;2023-01-26T20:36:43;32.30;;;12.10;;
3309;SDS011;1667;53.238;10.394;2023-01-26T20:41:46;28.40;;;11.63;;
3309;SDS011;1667;53.238;10.394;2023-01-26T20:46:45;44.37;;;14.07;;
3309;SDS011;1667;53.238;10.394;2023-01-26T20:51:44;38.20;;;13.40;;
3309;SDS011;1667;53.238;10.394;2023-01-26T20:56:45;18.20;;;9.57;;
3309;SDS011;1667;53.238;10.394;2023-01-26T21:01:45;31.17;;;11.10;;
3309;SDS011;1667;53.238;10.394;2023-01-26T21:06:44;21.83;;;9.43;;
3309;SDS011;1667;53.238;10.394;2023-01-26T21:11:44;19.53;;;9.27;;
3309;SDS011;1667;53.238;10.394;2023-01-26T21:16:43;20.47;;;8.90;;
3309;SDS011;1667;53.238;10.394;2023-01-26T21:21:41;19.17;;;9.03;;
3309;SDS011;1667;53.238;10.394;2023-01-26T21:26:40;24.23;;;8.23;;
3309;SDS011;1667;53.238;10.394;2023-01-26T21:31:41;14.73;;;7.73;;
3309;SDS011;1667;53.238;10.394;2023-01-26T21:36:41;19.87;;;7.93;;
3309;SDS011;1667;53.238;10.394;2023-01-26T21:41:39;17.20;;;8.03;;
3309;SDS011;1667;53.238;10.394;2023-01-26T21:46:55;20.23;;;7.83;;
3309;SDS011;1667;53.238;10.394;2023-01-26T21:51:54;23.17;;;8.33;;
3309;SDS011;1667;53.238;10.394;2023-01-26T21:57:11;19.90;;;8.13;;
3309;SDS011;1667;53.238;10.394;2023-01-26T22:02:24;13.37;;;7.30;;
3309;SDS011;1667;53.238;10.394;2023-01-26T22:07:23;19.40;;;7.97;;
3309;SDS011;1667;53.238;10.394;2023-01-26T22:12:23;20.07;;;9.30;;
3309;SDS011;1667;53.238;10.394;2023-01-26T22:17:22;15.20;;;7.30;;
3309;SDS011;1667;53.238;10.394;2023-01-26T22:22:22;13.40;;;7.97;;
3309;SDS011;1667;53.238;10.394;2023-01-26T22:27:20;15.03;;;7.57;;
3309;SDS011;1667;53.238;10.394;2023-01-26T22:32:19;10.57;;;6.53;;
3309;SDS011;1667;53.238;10.394;2023-01-26T22:37:18;11.40;;;6.33;;
3309;SDS011;1667;53.238;10.394;2023-01-26T22:42:19;16.33;;;6.97;;
3309;SDS011;1667;53.238;10.394;2023-01-26T22:47:18;10.27;;;6.13;;
3309;SDS011;1667;53.238;10.394;2023-01-26T22:52:18;11.30;;;5.33;;
3309;SDS011;1667;53.238;10.394;2023-01-26T22:57:16;12.53;;;6.00;;
3309;SDS011;1667;53.238;10.394;2023-01-26T23:02:15;8.53;;;5.73;;
3309;SDS011;1667;53.238;10.394;2023-01-26T23:07:13;16.93;;;6.47;;
3309;SDS011;1667;53.238;10.394;2023-01-26T23:12:13;7.80;;;4.73;;
3309;SDS011;1667;53.238;10.394;2023-01-26T23:17:12;7.97;;;4.80;;
3309;SDS011;1667;53.238;10.394;2023-01-26T23:22:10;8.67;;;6.03;;
3309;SDS011;1667;53.238;10.394;2023-01-26T23:27:09;7.33;;;5.50;;
3309;SDS011;1667;53.238;10.394;2023-01-26T23:32:09;10.10;;;5.27;;
3309;SDS011;1667;53.238;10.394;2023-01-26T23:37:07;9.20;;;5.13;;
3309;SDS011;1667;53.238;10.394;2023-01-26T23:42:06;8.60;;;5.30;;
3309;SDS011;1667;53.238;10.394;2023-01-26T23:47:04;6.10;;;4.73;;
3309;SDS011;1667;53.238;10.394;2023-01-26T23:52:04;5.73;;;5.13;;
3309;SDS011;1667;53.238;10.394;2023-01-26T23:57:03;8.87;;;5.90;;
